createdAt,value
2019-06-23T00:02:09.295Z,26.69
2019-06-23T00:04:43.019Z,26.68
2019-06-23T00:07:15.275Z,26.65
2019-06-23T00:09:50.051Z,26.65
2019-06-23T00:12:24.126Z,26.57
2019-06-23T00:14:59.550Z,26.46
2019-06-23T00:17:34.277Z,26.53
2019-06-23T00:20:08.505Z,26.50
2019-06-23T00:22:42.301Z,26.49
2019-06-23T00:25:16.103Z,26.44
2019-06-23T00:27:48.674Z,26.41
2019-06-23T00:30:23.872Z,26.39
2019-06-23T00:32:57.429Z,26.37
2019-06-23T00:35:29.587Z,26.32
2019-06-23T00:38:05.133Z,26.29
2019-06-23T00:40:37.610Z,26.27
2019-06-23T00:43:12.181Z,26.24
2019-06-23T00:45:45.963Z,26.23
2019-06-23T00:48:19.651Z,26.24
2019-06-23T00:50:52.711Z,26.17
2019-06-23T00:53:26.878Z,26.18
2019-06-23T00:55:59.365Z,26.15
2019-06-23T00:58:33.455Z,26.17
2019-06-23T01:01:11.862Z,26.16
2019-06-23T01:03:44.334Z,26.12
2019-06-23T01:06:18.309Z,26.08
2019-06-23T01:08:50.815Z,26.11
2019-06-23T01:11:51.746Z,26.03
2019-06-23T01:14:28.672Z,26.04
2019-06-23T01:17:04.405Z,25.97
2019-06-23T01:19:38.099Z,25.93
2019-06-23T01:22:13.542Z,25.89
2019-06-23T01:24:48.314Z,25.83
2019-06-23T01:27:23.442Z,25.82
2019-06-23T01:29:59.887Z,25.82
2019-06-23T01:32:32.124Z,25.81
2019-06-23T01:35:09.319Z,25.78
2019-06-23T01:37:43.116Z,25.76
2019-06-23T01:40:15.895Z,25.75
2019-06-23T01:42:50.110Z,25.72
2019-06-23T01:45:24.082Z,25.72
2019-06-23T01:47:56.196Z,25.71
2019-06-23T01:50:29.840Z,25.68
2019-06-23T01:53:03.171Z,25.73
2019-06-23T01:55:37.189Z,25.70
2019-06-23T01:58:09.712Z,25.69
2019-06-23T02:00:44.199Z,25.69
2019-06-23T02:03:17.386Z,25.65
2019-06-23T02:05:50.227Z,25.65
2019-06-23T02:08:23.147Z,25.58
2019-06-23T02:10:57.022Z,25.42
2019-06-23T02:13:30.874Z,25.24
2019-06-23T02:16:04.403Z,25.11
2019-06-23T02:18:37.970Z,25.14
2019-06-23T02:21:13.609Z,25.06
2019-06-23T02:23:45.778Z,25.08
2019-06-23T02:26:19.620Z,25.03
2019-06-23T02:28:56.978Z,25.02
2019-06-23T02:31:30.226Z,24.96
2019-06-23T02:34:04.383Z,24.78
2019-06-23T02:36:36.725Z,24.81
2019-06-23T02:39:08.990Z,24.61
2019-06-23T02:41:44.605Z,24.71
2019-06-23T02:44:18.486Z,24.61
2019-06-23T02:46:55.365Z,24.61
2019-06-23T02:49:31.105Z,24.62
2019-06-23T02:52:18.650Z,24.54
2019-06-23T02:55:03.661Z,24.46
2019-06-23T02:57:47.197Z,24.30
2019-06-23T03:00:32.301Z,24.26
2019-06-23T03:03:04.785Z,24.29
2019-06-23T03:05:45.231Z,24.31
2019-06-23T03:08:17.646Z,24.41
2019-06-23T03:10:49.883Z,24.36
2019-06-23T03:13:23.427Z,24.45
2019-06-23T03:15:57.258Z,24.21
2019-06-23T03:18:35.042Z,24.24
2019-06-23T03:21:14.006Z,24.27
2019-06-23T03:23:47.362Z,24.29
2019-06-23T03:26:26.005Z,24.30
2019-06-23T03:28:58.525Z,24.31
2019-06-23T03:31:31.237Z,24.34
2019-06-23T03:34:04.686Z,24.19
2019-06-23T03:36:38.181Z,24.20
2019-06-23T03:39:10.982Z,24.31
2019-06-23T03:41:44.868Z,24.40
2019-06-23T03:44:17.567Z,24.46
2019-06-23T03:46:51.147Z,24.48
2019-06-23T03:49:24.517Z,24.49
2019-06-23T03:51:57.050Z,24.52
2019-06-23T03:54:30.635Z,24.60
2019-06-23T03:57:04.346Z,24.65
2019-06-23T03:59:36.800Z,24.64
2019-06-23T04:02:09.174Z,24.68
2019-06-23T04:04:45.666Z,24.64
2019-06-23T04:07:18.033Z,24.66
2019-06-23T04:09:54.604Z,24.73
2019-06-23T04:12:32.043Z,24.75
2019-06-23T04:15:05.990Z,24.77
2019-06-23T04:17:39.886Z,24.84
2019-06-23T04:20:20.389Z,24.86
2019-06-23T04:22:57.561Z,24.95
2019-06-23T04:25:30.387Z,24.99
2019-06-23T04:28:05.492Z,25.12
2019-06-23T04:30:38.957Z,25.14
2019-06-23T04:33:12.781Z,25.15
2019-06-23T04:35:47.687Z,25.25
2019-06-23T04:38:21.473Z,25.27
2019-06-23T04:40:55.526Z,25.17
2019-06-23T04:43:31.786Z,25.15
2019-06-23T04:46:06.219Z,25.11
2019-06-23T04:48:40.105Z,25.18
2019-06-23T04:51:12.880Z,25.21
2019-06-23T04:53:47.409Z,25.18
2019-06-23T04:56:24.103Z,25.22
2019-06-23T04:58:57.538Z,25.22
2019-06-23T05:01:30.891Z,25.21
2019-06-23T05:04:05.214Z,25.29
2019-06-23T05:06:38.438Z,25.34
2019-06-23T05:09:13.221Z,25.35
2019-06-23T05:11:48.060Z,25.36
2019-06-23T05:14:27.241Z,25.38
2019-06-23T05:16:59.551Z,25.36
2019-06-23T05:19:35.298Z,25.33
2019-06-23T05:22:08.895Z,25.26
2019-06-23T05:24:43.915Z,25.26
2019-06-23T05:27:16.323Z,25.20
2019-06-23T05:29:51.049Z,25.18
2019-06-23T05:32:24.423Z,25.19
2019-06-23T05:34:57.061Z,25.20
2019-06-23T05:37:31.240Z,25.17
2019-06-23T05:40:04.816Z,25.15
2019-06-23T05:42:37.111Z,25.23
2019-06-23T05:45:11.332Z,25.22
2019-06-23T05:47:43.694Z,25.16
2019-06-23T05:50:16.189Z,25.11
2019-06-23T05:52:49.436Z,25.01
2019-06-23T05:55:21.924Z,24.94
2019-06-23T05:57:54.315Z,24.99
2019-06-23T06:00:26.657Z,25.00
2019-06-23T06:03:00.286Z,25.07
2019-06-23T06:05:32.554Z,25.11
2019-06-23T06:08:05.044Z,25.17
2019-06-23T06:10:37.195Z,25.18
2019-06-23T06:13:09.451Z,25.29
2019-06-23T06:15:41.621Z,25.39
2019-06-23T06:18:14.392Z,25.48
2019-06-23T06:20:46.584Z,25.44
2019-06-23T06:23:19.161Z,25.50
2019-06-23T06:25:51.636Z,25.55
2019-06-23T06:28:24.000Z,25.61
2019-06-23T06:30:57.283Z,25.69
2019-06-23T06:33:29.780Z,25.67
2019-06-23T06:36:02.255Z,25.73
2019-06-23T06:38:35.619Z,25.72
2019-06-23T06:41:08.028Z,25.80
2019-06-23T06:43:41.037Z,25.85
2019-06-23T06:46:13.354Z,25.93
2019-06-23T06:48:45.546Z,25.99
2019-06-23T06:51:18.105Z,25.92
2019-06-23T06:53:53.254Z,26.03
2019-06-23T06:56:25.811Z,26.03
2019-06-23T06:58:58.389Z,26.02
2019-06-23T07:01:30.866Z,26.10
2019-06-23T07:04:03.452Z,26.00
2019-06-23T07:06:35.730Z,26.01
2019-06-23T07:09:08.084Z,26.11
2019-06-23T07:11:40.453Z,26.05
2019-06-23T07:14:13.189Z,26.16
2019-06-23T07:16:45.307Z,26.25
2019-06-23T07:19:18.835Z,26.25
2019-06-23T07:21:51.376Z,26.28
2019-06-23T07:24:23.773Z,26.29
2019-06-23T07:26:56.246Z,26.26
2019-06-23T07:29:28.621Z,26.27
2019-06-23T07:32:03.056Z,26.34
2019-06-23T07:34:35.319Z,26.38
2019-06-23T07:37:08.082Z,26.39
2019-06-23T07:39:40.443Z,26.36
2019-06-23T07:42:12.834Z,26.33
2019-06-23T07:44:45.304Z,26.31
2019-06-23T07:47:17.668Z,26.33
2019-06-23T07:49:49.857Z,26.30
2019-06-23T07:52:22.334Z,26.16
2019-06-23T07:54:54.693Z,26.22
2019-06-23T07:57:27.067Z,26.15
2019-06-23T07:59:59.531Z,26.20
2019-06-23T08:02:31.882Z,26.09
2019-06-23T08:05:05.294Z,26.08
2019-06-23T08:07:37.660Z,26.11
2019-06-23T08:10:10.458Z,26.06
2019-06-23T08:12:42.831Z,26.17
2019-06-23T08:15:15.527Z,26.14
2019-06-23T08:17:48.510Z,26.30
2019-06-23T08:20:20.778Z,26.35
2019-06-23T08:22:53.868Z,26.42
2019-06-23T08:25:26.262Z,26.39
2019-06-23T08:27:58.602Z,26.46
2019-06-23T08:30:30.951Z,26.47
2019-06-23T08:33:03.448Z,26.59
2019-06-23T08:35:35.792Z,26.57
2019-06-23T08:38:15.617Z,26.74
2019-06-23T08:40:42.486Z,26.92
2019-06-23T08:43:14.964Z,27.07
2019-06-23T08:45:47.349Z,27.16
2019-06-23T08:48:19.806Z,27.14
2019-06-23T08:50:53.469Z,27.22
2019-06-23T08:53:25.836Z,27.22
2019-06-23T08:55:58.061Z,27.12
2019-06-23T08:58:30.651Z,27.15
2019-06-23T09:01:04.686Z,27.24
2019-06-23T09:03:36.950Z,27.19
2019-06-23T09:06:10.631Z,27.03
2019-06-23T09:08:43.210Z,27.09
2019-06-23T09:11:16.630Z,26.97
2019-06-23T09:13:52.399Z,26.92
2019-06-23T09:16:24.729Z,26.83
2019-06-23T09:18:57.209Z,26.82
2019-06-23T09:21:29.616Z,26.91
2019-06-23T09:24:02.555Z,26.84
2019-06-23T09:26:34.910Z,26.91
2019-06-23T09:29:07.485Z,26.98
2019-06-23T09:31:42.114Z,26.91
2019-06-23T09:34:14.408Z,26.96
2019-06-23T09:36:46.970Z,26.98
2019-06-23T09:39:19.503Z,26.98
2019-06-23T09:41:51.827Z,26.98
2019-06-23T09:44:24.100Z,26.94
2019-06-23T09:46:56.251Z,26.92
2019-06-23T09:49:28.653Z,26.83
2019-06-23T09:52:00.988Z,26.73
2019-06-23T09:54:33.485Z,26.71
2019-06-23T09:57:06.221Z,26.64
2019-06-23T09:59:39.070Z,26.69
2019-06-23T10:02:11.403Z,26.72
2019-06-23T10:04:43.987Z,26.73
2019-06-23T10:07:16.351Z,26.84
2019-06-23T10:09:48.849Z,26.79
2019-06-23T10:12:21.272Z,26.80
2019-06-23T10:14:53.984Z,26.66
2019-06-23T10:17:26.471Z,26.71
2019-06-23T10:19:59.043Z,26.70
2019-06-23T10:22:31.358Z,26.75
2019-06-23T10:25:04.899Z,26.81
2019-06-23T10:27:37.205Z,26.77
2019-06-23T10:30:11.608Z,26.92
2019-06-23T10:32:44.883Z,27.06
2019-06-23T10:35:18.331Z,27.16
2019-06-23T10:37:52.502Z,27.23
2019-06-23T10:40:24.970Z,27.30
2019-06-23T10:42:57.487Z,27.33
2019-06-23T10:45:30.147Z,27.48
2019-06-23T10:48:02.901Z,27.50
2019-06-23T10:50:36.052Z,27.60
2019-06-23T10:53:08.571Z,27.61
2019-06-23T10:55:41.050Z,27.72
2019-06-23T10:58:13.823Z,27.77
2019-06-23T11:00:46.229Z,27.87
2019-06-23T11:03:20.108Z,27.92
2019-06-23T11:05:53.761Z,27.93
2019-06-23T11:08:25.979Z,27.94
2019-06-23T11:10:59.223Z,27.95
2019-06-23T11:13:31.684Z,28.01
2019-06-23T11:16:04.134Z,27.98
2019-06-23T11:18:36.309Z,27.93
2019-06-23T11:21:09.919Z,27.97
2019-06-23T11:23:42.270Z,27.89
2019-06-23T11:26:14.965Z,27.82
2019-06-23T11:28:47.509Z,27.82
2019-06-23T11:31:20.005Z,27.80
2019-06-23T11:33:52.270Z,27.87
2019-06-23T11:36:25.038Z,27.86
2019-06-23T11:38:58.877Z,27.92
2019-06-23T11:41:33.590Z,27.90
2019-06-23T11:44:05.940Z,27.95
2019-06-23T11:46:38.520Z,27.76
2019-06-23T11:49:10.993Z,27.76
2019-06-23T11:51:43.399Z,27.77
2019-06-23T11:54:15.768Z,27.77
2019-06-23T11:56:48.139Z,27.74
2019-06-23T11:59:22.244Z,27.69
2019-06-23T12:01:54.724Z,27.73
2019-06-23T12:04:27.196Z,27.60
2019-06-23T12:06:59.749Z,27.67
2019-06-23T12:09:33.351Z,27.71
2019-06-23T12:12:05.636Z,27.63
2019-06-23T12:14:38.100Z,27.57
2019-06-23T12:17:10.601Z,27.62
2019-06-23T12:19:45.805Z,27.59
2019-06-23T12:22:19.586Z,27.66
2019-06-23T12:24:52.035Z,27.57
2019-06-23T12:27:24.582Z,27.58
2019-06-23T12:29:57.783Z,27.60
2019-06-23T12:32:32.080Z,27.63
2019-06-23T12:35:06.669Z,27.65
2019-06-23T12:37:39.087Z,27.56
2019-06-23T12:40:24.187Z,27.62
2019-06-23T12:42:45.987Z,27.62
2019-06-23T12:45:18.582Z,27.59
2019-06-23T12:47:51.021Z,27.62
2019-06-23T12:50:23.850Z,27.58
2019-06-23T12:52:56.529Z,27.60
2019-06-23T12:55:29.062Z,27.67
2019-06-23T12:58:01.530Z,27.59
2019-06-23T13:00:34.009Z,27.64
2019-06-23T13:03:06.338Z,27.72
2019-06-23T13:05:38.950Z,27.53
2019-06-23T13:08:11.545Z,27.60
2019-06-23T13:10:44.103Z,27.54
2019-06-23T13:13:16.419Z,27.51
2019-06-23T13:15:50.402Z,27.45
2019-06-23T13:18:23.683Z,27.42
2019-06-23T13:20:55.849Z,27.46
2019-06-23T13:23:29.353Z,27.45
2019-06-23T13:26:05.533Z,27.43
2019-06-23T13:28:37.980Z,27.35
2019-06-23T13:31:10.771Z,27.31
2019-06-23T13:33:43.054Z,27.27
2019-06-23T13:36:16.671Z,27.17
2019-06-23T13:38:49.850Z,27.23
2019-06-23T13:41:22.385Z,27.22
2019-06-23T13:43:55.290Z,27.25
2019-06-23T13:46:27.891Z,27.25
2019-06-23T13:49:01.680Z,27.24
2019-06-23T13:51:34.056Z,27.30
2019-06-23T13:54:07.259Z,27.36
2019-06-23T13:56:39.727Z,27.30
2019-06-23T13:59:14.160Z,27.16
2019-06-23T14:01:49.231Z,27.13
2019-06-23T14:04:21.563Z,27.06
2019-06-23T14:06:54.032Z,27.02
2019-06-23T14:09:26.590Z,27.14
2019-06-23T14:11:58.984Z,27.18
2019-06-23T14:14:31.454Z,27.04
2019-06-23T14:17:05.036Z,27.08
2019-06-23T14:19:37.338Z,27.06
2019-06-23T14:22:09.583Z,27.05
2019-06-23T14:24:42.163Z,27.10
2019-06-23T14:27:14.681Z,27.10
2019-06-23T14:29:47.120Z,27.01
2019-06-23T14:32:21.055Z,26.85
2019-06-23T14:34:53.198Z,26.90
2019-06-23T14:37:25.689Z,26.94
2019-06-23T14:39:58.443Z,26.94
2019-06-23T14:42:32.264Z,26.88
2019-06-23T14:45:09.217Z,26.83
2019-06-23T14:47:42.366Z,26.86
2019-06-23T14:50:15.322Z,26.83
2019-06-23T14:52:47.457Z,26.84
2019-06-23T14:55:20.239Z,26.79
2019-06-23T14:57:52.421Z,26.74
2019-06-23T15:00:25.116Z,26.77
2019-06-23T15:02:57.618Z,26.79
2019-06-23T15:05:30.068Z,26.81
2019-06-23T15:08:02.595Z,26.76
2019-06-23T15:10:35.189Z,26.76
2019-06-23T15:13:08.886Z,26.80
2019-06-23T15:15:41.703Z,26.77
2019-06-23T15:18:15.907Z,26.74
2019-06-23T15:20:49.282Z,26.75
2019-06-23T15:23:24.578Z,26.69
2019-06-23T15:25:57.150Z,26.72
2019-06-23T15:28:30.903Z,26.73
2019-06-23T15:31:03.076Z,26.73
2019-06-23T15:33:36.976Z,26.69
2019-06-23T15:36:09.146Z,26.67
2019-06-23T15:38:42.858Z,26.77
2019-06-23T15:41:15.937Z,26.68
2019-06-23T15:43:49.248Z,26.59
2019-06-23T15:46:26.811Z,26.61
2019-06-23T15:49:02.404Z,26.69
2019-06-23T15:51:43.071Z,26.64
2019-06-23T15:54:14.252Z,26.65
2019-06-23T15:56:48.090Z,26.58
2019-06-23T15:59:20.584Z,26.60
2019-06-23T16:01:55.057Z,26.67
2019-06-23T16:04:29.065Z,26.72
2019-06-23T16:07:01.428Z,26.76
2019-06-23T16:09:35.334Z,26.76
2019-06-23T16:12:17.075Z,26.84
2019-06-23T16:14:47.425Z,26.91
2019-06-23T16:17:21.953Z,26.92
2019-06-23T16:19:57.418Z,26.95
2019-06-23T16:22:31.262Z,26.96
2019-06-23T16:25:07.662Z,26.95
2019-06-23T16:27:39.947Z,26.98
2019-06-23T16:30:13.977Z,27.01
2019-06-23T16:32:52.423Z,27.04
2019-06-23T16:35:25.875Z,27.00
2019-06-23T16:38:02.469Z,26.98
2019-06-23T16:40:35.091Z,27.00
2019-06-23T16:43:07.858Z,27.03
2019-06-23T16:45:41.258Z,27.02
2019-06-23T16:48:17.330Z,27.05
2019-06-23T16:50:51.998Z,27.00
2019-06-23T16:53:25.567Z,26.96
2019-06-23T16:56:06.753Z,26.99
2019-06-23T16:58:44.582Z,26.82
2019-06-23T17:01:16.784Z,26.94
2019-06-23T17:03:51.997Z,26.94
2019-06-23T17:06:26.260Z,26.94
2019-06-23T17:08:58.857Z,26.97
2019-06-23T17:11:35.881Z,26.97
2019-06-23T17:14:09.405Z,26.96
2019-06-23T17:16:44.239Z,27.00
2019-06-23T17:19:18.060Z,26.84
2019-06-23T17:21:54.120Z,26.86
2019-06-23T17:24:26.166Z,26.89
2019-06-23T17:27:09.236Z,26.93
2019-06-23T17:29:43.037Z,26.88
2019-06-23T17:32:15.695Z,26.91
2019-06-23T17:34:52.780Z,26.97
2019-06-23T17:37:25.115Z,26.93
2019-06-23T17:39:59.223Z,26.89
2019-06-23T17:42:35.400Z,26.84
2019-06-23T17:45:12.107Z,26.83
2019-06-23T17:47:44.256Z,26.79
2019-06-23T17:50:17.170Z,26.80
2019-06-23T17:52:50.038Z,26.87
2019-06-23T17:55:22.632Z,26.83
2019-06-23T17:57:58.551Z,26.77
2019-06-23T18:00:33.141Z,26.76
2019-06-23T18:03:09.760Z,26.70
2019-06-23T18:05:45.934Z,26.65
2019-06-23T18:08:20.122Z,26.48
2019-06-23T18:10:54.379Z,26.50
2019-06-23T18:13:31.437Z,26.52
2019-06-23T18:16:10.683Z,26.48
2019-06-23T18:18:45.792Z,26.36
2019-06-23T18:21:22.551Z,26.23
2019-06-23T18:23:54.768Z,26.09
2019-06-23T18:26:27.194Z,26.16
2019-06-23T18:28:59.921Z,26.08
2019-06-23T18:31:41.728Z,26.06
2019-06-23T18:34:15.696Z,25.97
2019-06-23T18:36:50.818Z,25.98
2019-06-23T18:39:26.467Z,25.91
2019-06-23T18:41:58.843Z,25.88
2019-06-23T18:44:31.528Z,25.93
2019-06-23T18:47:04.356Z,25.91
2019-06-23T18:49:37.245Z,25.90
2019-06-23T18:52:12.653Z,25.92
2019-06-23T18:54:45.213Z,25.77
2019-06-23T18:57:18.697Z,25.83
2019-06-23T18:59:54.904Z,25.80
2019-06-23T19:02:25.218Z,25.72
2019-06-23T19:04:58.922Z,25.63
2019-06-23T19:07:32.706Z,25.66
2019-06-23T19:10:07.433Z,25.70
2019-06-23T19:12:42.258Z,25.75
2019-06-23T19:15:17.676Z,25.67
2019-06-23T19:17:50.337Z,25.81
2019-06-23T19:20:22.872Z,25.83
2019-06-23T19:22:55.460Z,25.72
2019-06-23T19:25:32.938Z,25.80
2019-06-23T19:28:06.844Z,25.67
2019-06-23T19:30:39.309Z,25.70
2019-06-23T19:33:12.618Z,25.68
2019-06-23T19:35:45.423Z,25.59
2019-06-23T19:38:20.527Z,25.42
2019-06-23T19:40:57.254Z,25.48
2019-06-23T19:43:30.280Z,25.38
2019-06-23T19:46:04.688Z,25.41
2019-06-23T19:48:37.497Z,25.38
2019-06-23T19:51:14.031Z,25.45
2019-06-23T19:53:51.674Z,25.36
2019-06-23T19:56:23.267Z,25.26
2019-06-23T19:58:57.204Z,25.31
2019-06-23T20:01:31.567Z,25.28
2019-06-23T20:04:04.172Z,25.37
2019-06-23T20:06:36.905Z,25.30
2019-06-23T20:09:10.895Z,25.22
2019-06-23T20:11:44.520Z,25.21
2019-06-23T20:14:27.141Z,25.06
2019-06-23T20:16:53.471Z,25.14
2019-06-23T20:19:27.823Z,25.07
2019-06-23T20:22:00.641Z,25.10
2019-06-23T20:24:34.751Z,25.18
2019-06-23T20:27:07.224Z,25.06
2019-06-23T20:29:39.709Z,25.15
2019-06-23T20:32:15.081Z,25.12
2019-06-23T20:34:54.615Z,25.05
2019-06-23T20:37:30.143Z,25.06
2019-06-23T20:40:05.433Z,25.09
2019-06-23T20:42:39.891Z,25.15
2019-06-23T20:45:13.544Z,25.09
2019-06-23T20:47:45.943Z,25.11
2019-06-23T20:50:20.845Z,25.07
2019-06-23T20:52:53.271Z,25.06
2019-06-23T20:55:26.664Z,25.06
2019-06-23T20:57:59.146Z,25.04
2019-06-23T21:00:32.259Z,25.11
2019-06-23T21:03:07.157Z,25.07
2019-06-23T21:05:41.387Z,25.01
2019-06-23T21:08:15.386Z,24.98
2019-06-23T21:10:50.050Z,25.00
2019-06-23T21:13:22.280Z,25.06
2019-06-23T21:15:55.677Z,25.04
2019-06-23T21:18:29.183Z,25.04
2019-06-23T21:21:04.111Z,24.97
2019-06-23T21:23:39.045Z,24.98
2019-06-23T21:26:14.345Z,24.98
2019-06-23T21:28:48.945Z,24.75
2019-06-23T21:31:22.465Z,24.66
2019-06-23T21:33:55.531Z,24.25
2019-06-23T21:36:27.886Z,24.12
2019-06-23T21:39:04.947Z,24.12
2019-06-23T21:41:37.379Z,24.12
2019-06-23T21:44:11.676Z,24.00
2019-06-23T21:46:45.678Z,23.99
2019-06-23T21:49:17.815Z,23.96
2019-06-23T21:51:57.399Z,23.66
2019-06-23T21:54:30.968Z,23.69
2019-06-23T21:57:03.892Z,23.55
2019-06-23T21:59:37.491Z,23.48
2019-06-23T22:02:11.701Z,23.40
2019-06-23T22:04:47.065Z,23.45
2019-06-23T22:07:19.266Z,23.52
2019-06-23T22:09:52.152Z,23.53
2019-06-23T22:12:27.514Z,23.54
2019-06-23T22:15:02.944Z,23.54
2019-06-23T22:17:35.658Z,23.60
2019-06-23T22:20:10.517Z,23.68
2019-06-23T22:22:49.576Z,23.63
2019-06-23T22:25:23.017Z,23.64
2019-06-23T22:27:56.823Z,23.58
2019-06-23T22:30:31.850Z,23.70
2019-06-23T22:33:05.519Z,23.72
2019-06-23T22:35:38.772Z,23.82
2019-06-23T22:38:13.057Z,23.80
2019-06-23T22:40:46.740Z,23.81
2019-06-23T22:43:20.330Z,23.77
2019-06-23T22:45:53.103Z,23.75
2019-06-23T22:48:26.539Z,23.79
2019-06-23T22:51:02.421Z,23.82
2019-06-23T22:53:38.515Z,23.91
2019-06-23T22:56:17.169Z,23.92
2019-06-23T22:58:56.991Z,23.88
2019-06-23T23:01:32.231Z,23.90
2019-06-23T23:04:04.859Z,23.96
2019-06-23T23:06:40.788Z,23.95
2019-06-23T23:09:17.498Z,24.01
2019-06-23T23:11:50.141Z,24.11
2019-06-23T23:14:22.521Z,24.10
2019-06-23T23:16:54.956Z,24.13
2019-06-23T23:19:28.784Z,24.17
2019-06-23T23:22:01.065Z,24.15
2019-06-23T23:24:35.789Z,24.24
2019-06-23T23:27:08.338Z,24.18
2019-06-23T23:29:40.803Z,24.21
2019-06-23T23:32:16.519Z,24.16
2019-06-23T23:34:49.306Z,24.20
2019-06-23T23:37:23.089Z,24.15
2019-06-23T23:39:58.647Z,24.18
2019-06-23T23:42:32.402Z,24.17
2019-06-23T23:45:06.608Z,24.16
2019-06-23T23:47:38.884Z,24.15
2019-06-23T23:50:11.689Z,24.00
2019-06-23T23:52:45.371Z,24.15
2019-06-23T23:55:18.047Z,24.17
2019-06-23T23:57:50.558Z,24.18
